createdAt,value
2018-06-21T00:00:01.236Z,21.42
2018-06-21T00:00:32.412Z,21.41
2018-06-21T00:01:03.585Z,21.38
2018-06-21T00:01:34.810Z,21.38
2018-06-21T00:02:06.004Z,21.32
2018-06-21T00:02:37.176Z,21.31
2018-06-21T00:03:08.349Z,21.34
2018-06-21T00:03:39.526Z,21.35
2018-06-21T00:04:10.756Z,21.33
2018-06-21T00:04:42.001Z,21.33
2018-06-21T00:05:13.180Z,21.33
2018-06-21T00:05:44.396Z,21.33
2018-06-21T00:06:15.626Z,21.33
2018-06-21T00:06:46.829Z,21.32
2018-06-21T00:07:18.008Z,21.32
2018-06-21T00:07:50.009Z,21.29
2018-06-21T00:08:21.258Z,21.29
2018-06-21T00:08:52.482Z,21.30
2018-06-21T00:09:23.673Z,21.30
2018-06-21T00:09:54.848Z,21.29
2018-06-21T00:10:27.195Z,21.31
2018-06-21T00:10:59.564Z,21.31
2018-06-21T00:11:33.522Z,21.30
2018-06-21T00:12:04.694Z,21.31
2018-06-21T00:12:35.926Z,21.30
2018-06-21T00:13:07.159Z,21.28
2018-06-21T00:13:38.442Z,21.26
2018-06-21T00:14:09.678Z,21.24
2018-06-21T00:14:40.868Z,21.21
2018-06-21T00:15:12.098Z,21.19
2018-06-21T00:15:43.288Z,21.15
2018-06-21T00:16:14.511Z,21.13
2018-06-21T00:16:45.685Z,21.11
2018-06-21T00:17:16.923Z,21.07
2018-06-21T00:17:48.101Z,21.05
2018-06-21T00:18:19.309Z,21.02
2018-06-21T00:18:50.529Z,21.00
2018-06-21T00:19:21.765Z,20.97
2018-06-21T00:19:52.994Z,20.97
2018-06-21T00:20:24.221Z,20.96
2018-06-21T00:20:55.453Z,20.96
2018-06-21T00:21:26.633Z,20.96
2018-06-21T00:21:57.810Z,20.95
2018-06-21T00:22:28.986Z,20.94
2018-06-21T00:23:00.152Z,20.95
2018-06-21T00:23:31.376Z,20.93
2018-06-21T00:24:02.606Z,20.95
2018-06-21T00:24:33.833Z,20.98
2018-06-21T00:25:05.056Z,20.99
2018-06-21T00:25:36.232Z,21.01
2018-06-21T00:26:07.406Z,21.02
2018-06-21T00:26:38.580Z,21.03
2018-06-21T00:27:10.172Z,21.04
2018-06-21T00:27:41.340Z,21.03
2018-06-21T00:28:12.560Z,21.02
2018-06-21T00:28:43.783Z,21.01
2018-06-21T00:29:14.989Z,21.04
2018-06-21T00:29:46.212Z,21.03
2018-06-21T00:30:17.394Z,21.02
2018-06-21T00:30:48.639Z,21.00
2018-06-21T00:31:19.847Z,20.96
2018-06-21T00:31:51.076Z,20.92
2018-06-21T00:32:22.316Z,20.89
2018-06-21T00:32:53.501Z,20.85
2018-06-21T00:33:24.668Z,20.82
2018-06-21T00:33:55.836Z,20.77
2018-06-21T00:34:27.052Z,20.73
2018-06-21T00:34:58.229Z,20.66
2018-06-21T00:35:29.458Z,20.66
2018-06-21T00:36:00.641Z,20.63
2018-06-21T00:36:31.860Z,20.62
2018-06-21T00:37:03.046Z,20.62
2018-06-21T00:37:34.228Z,20.63
2018-06-21T00:38:05.405Z,20.63
2018-06-21T00:38:36.583Z,20.63
2018-06-21T00:39:07.764Z,20.61
2018-06-21T00:39:38.952Z,20.62
2018-06-21T00:40:10.116Z,20.61
2018-06-21T00:40:41.338Z,20.61
2018-06-21T00:41:12.526Z,20.61
2018-06-21T00:41:43.765Z,20.65
2018-06-21T00:42:14.946Z,20.67
2018-06-21T00:42:46.133Z,20.69
2018-06-21T00:43:17.352Z,20.74
2018-06-21T00:43:48.536Z,20.75
2018-06-21T00:44:19.708Z,20.78
2018-06-21T00:44:50.882Z,20.79
2018-06-21T00:45:22.055Z,20.82
2018-06-21T00:45:53.267Z,20.82
2018-06-21T00:46:24.481Z,20.79
2018-06-21T00:46:55.710Z,20.76
2018-06-21T00:47:26.901Z,20.74
2018-06-21T00:47:58.125Z,20.71
2018-06-21T00:48:29.352Z,20.70
2018-06-21T00:49:00.532Z,20.69
2018-06-21T00:49:31.709Z,20.66
2018-06-21T00:50:02.937Z,20.66
2018-06-21T00:50:34.124Z,20.63
2018-06-21T00:51:05.352Z,20.63
2018-06-21T00:51:36.533Z,20.61
2018-06-21T00:52:07.753Z,20.59
2018-06-21T00:52:38.974Z,20.58
2018-06-21T00:53:10.201Z,20.57
2018-06-21T00:53:41.441Z,20.59
2018-06-21T00:54:12.643Z,20.59
2018-06-21T00:54:43.816Z,20.59
2018-06-21T00:55:15.053Z,20.59
2018-06-21T00:55:46.223Z,20.60
2018-06-21T00:56:17.396Z,20.60
2018-06-21T00:56:48.621Z,20.60
2018-06-21T00:57:19.893Z,20.61
2018-06-21T00:57:51.074Z,20.61
2018-06-21T00:58:22.288Z,20.60
2018-06-21T00:58:53.452Z,20.62
2018-06-21T00:59:24.680Z,20.63
2018-06-21T00:59:55.859Z,20.64
2018-06-21T01:00:27.077Z,20.65
2018-06-21T01:00:58.260Z,20.65
2018-06-21T01:01:29.477Z,20.66
2018-06-21T01:02:00.720Z,20.63
2018-06-21T01:02:31.899Z,20.66
2018-06-21T01:03:03.113Z,20.66
2018-06-21T01:03:34.288Z,20.64
2018-06-21T01:04:05.460Z,20.67
2018-06-21T01:04:36.629Z,20.67
2018-06-21T01:05:07.800Z,20.66
2018-06-21T01:05:38.982Z,20.63
2018-06-21T01:06:10.155Z,20.61
2018-06-21T01:06:41.424Z,20.60
2018-06-21T01:07:12.609Z,20.57
2018-06-21T01:07:43.775Z,20.54
2018-06-21T01:08:14.935Z,20.55
2018-06-21T01:08:46.159Z,20.54
2018-06-21T01:09:17.400Z,20.51
2018-06-21T01:09:48.617Z,20.49
2018-06-21T01:10:19.794Z,20.48
2018-06-21T01:10:50.956Z,20.44
2018-06-21T01:11:22.141Z,20.45
2018-06-21T01:11:53.372Z,20.43
2018-06-21T01:12:24.581Z,20.43
2018-06-21T01:12:55.756Z,20.42
2018-06-21T01:13:26.928Z,20.41
2018-06-21T01:13:58.098Z,20.40
2018-06-21T01:14:29.272Z,20.38
2018-06-21T01:15:00.452Z,20.40
2018-06-21T01:15:31.684Z,20.38
2018-06-21T01:16:02.861Z,20.38
2018-06-21T01:16:34.092Z,20.37
2018-06-21T01:17:05.280Z,20.39
2018-06-21T01:17:36.456Z,20.38
2018-06-21T01:18:07.681Z,20.37
2018-06-21T01:18:38.920Z,20.33
2018-06-21T01:19:10.105Z,20.31
2018-06-21T01:19:41.337Z,20.33
2018-06-21T01:20:12.580Z,20.31
2018-06-21T01:20:43.813Z,20.30
2018-06-21T01:21:14.998Z,20.30
2018-06-21T01:21:46.177Z,20.28
2018-06-21T01:22:17.375Z,20.25
2018-06-21T01:22:48.602Z,20.24
2018-06-21T01:23:19.788Z,20.23
2018-06-21T01:23:51.013Z,20.21
2018-06-21T01:24:22.249Z,20.20
2018-06-21T01:24:53.436Z,20.17
2018-06-21T01:25:24.686Z,20.15
2018-06-21T01:25:55.896Z,20.14
2018-06-21T01:26:27.068Z,20.10
2018-06-21T01:26:58.280Z,20.09
2018-06-21T01:27:29.456Z,20.06
2018-06-21T01:28:00.643Z,20.04
2018-06-21T01:28:31.882Z,20.04
2018-06-21T01:29:03.161Z,20.05
2018-06-21T01:29:34.348Z,20.05
2018-06-21T01:30:05.534Z,20.05
2018-06-21T01:30:36.768Z,20.05
2018-06-21T01:31:08.013Z,20.06
2018-06-21T01:31:39.192Z,20.06
2018-06-21T01:32:10.372Z,20.08
2018-06-21T01:32:41.598Z,20.09
2018-06-21T01:33:12.820Z,20.10
2018-06-21T01:33:44.053Z,20.13
2018-06-21T01:34:15.245Z,20.15
2018-06-21T01:34:46.484Z,20.19
2018-06-21T01:35:17.705Z,20.23
2018-06-21T01:35:48.903Z,20.27
2018-06-21T01:36:20.133Z,20.28
2018-06-21T01:36:51.372Z,20.31
2018-06-21T01:37:22.552Z,20.33
2018-06-21T01:37:53.785Z,20.35
2018-06-21T01:38:25.021Z,20.35
2018-06-21T01:38:56.205Z,20.33
2018-06-21T01:39:27.394Z,20.32
2018-06-21T01:39:58.634Z,20.29
2018-06-21T01:40:29.865Z,20.25
2018-06-21T01:41:01.044Z,20.23
2018-06-21T01:41:32.286Z,20.20
2018-06-21T01:42:03.477Z,20.19
2018-06-21T01:42:34.648Z,20.18
2018-06-21T01:43:05.936Z,20.16
2018-06-21T01:43:37.125Z,20.15
2018-06-21T01:44:08.305Z,20.14
2018-06-21T01:44:39.485Z,20.12
2018-06-21T01:45:10.668Z,20.11
2018-06-21T01:45:41.840Z,20.10
2018-06-21T01:46:13.034Z,20.10
2018-06-21T01:46:44.263Z,20.12
2018-06-21T01:47:15.450Z,20.13
2018-06-21T01:47:46.660Z,20.12
2018-06-21T01:48:17.833Z,17.73
2018-06-21T01:48:49.078Z,20.15
2018-06-21T01:49:20.260Z,20.18
2018-06-21T01:49:51.440Z,20.21
2018-06-21T01:50:22.620Z,20.25
2018-06-21T01:50:53.861Z,20.27
2018-06-21T01:51:25.088Z,20.26
2018-06-21T01:51:56.260Z,20.30
2018-06-21T01:52:27.436Z,20.29
2018-06-21T01:52:58.626Z,20.29
2018-06-21T01:53:29.855Z,20.30
2018-06-21T01:54:01.090Z,20.29
2018-06-21T01:54:32.271Z,20.30
2018-06-21T01:55:03.446Z,20.32
2018-06-21T01:55:34.627Z,20.34
2018-06-21T01:56:05.868Z,20.33
2018-06-21T01:56:37.057Z,20.29
2018-06-21T01:57:08.249Z,20.26
2018-06-21T01:57:39.472Z,20.26
2018-06-21T01:58:10.657Z,20.25
2018-06-21T01:58:41.876Z,20.23
2018-06-21T01:59:13.109Z,20.22
2018-06-21T01:59:44.344Z,20.02
2018-06-21T02:00:15.578Z,20.15
2018-06-21T02:00:46.861Z,20.12
2018-06-21T02:01:18.044Z,20.09
2018-06-21T02:01:49.224Z,20.08
2018-06-21T02:02:20.405Z,20.09
2018-06-21T02:02:51.582Z,19.92
2018-06-21T02:03:22.773Z,20.08
2018-06-21T02:03:54.103Z,20.05
2018-06-21T02:04:25.298Z,20.04
2018-06-21T02:04:56.527Z,20.03
2018-06-21T02:05:27.714Z,20.02
2018-06-21T02:05:58.887Z,20.00
2018-06-21T02:06:30.065Z,20.00
2018-06-21T02:07:01.236Z,19.97
2018-06-21T02:07:32.476Z,19.99
2018-06-21T02:08:04.531Z,20.00
2018-06-21T02:08:35.747Z,20.01
2018-06-21T02:09:06.930Z,20.02
2018-06-21T02:09:38.112Z,20.02
2018-06-21T02:10:09.343Z,20.00
2018-06-21T02:10:40.544Z,20.02
2018-06-21T02:11:11.751Z,20.02
2018-06-21T02:11:42.924Z,20.01
2018-06-21T02:12:14.100Z,20.04
2018-06-21T02:12:45.320Z,20.07
2018-06-21T02:13:16.540Z,20.04
2018-06-21T02:13:47.724Z,20.03
2018-06-21T02:14:18.954Z,20.03
2018-06-21T02:14:50.142Z,20.03
2018-06-21T02:15:21.374Z,20.03
2018-06-21T02:15:52.604Z,20.03
2018-06-21T02:16:23.836Z,20.03
2018-06-21T02:16:55.024Z,20.03
2018-06-21T02:17:26.201Z,20.00
2018-06-21T02:17:57.381Z,19.99
2018-06-21T02:18:28.661Z,19.96
2018-06-21T02:18:59.896Z,19.95
2018-06-21T02:19:31.076Z,19.94
2018-06-21T02:20:02.310Z,19.92
2018-06-21T02:20:33.536Z,19.93
2018-06-21T02:21:04.772Z,19.91
2018-06-21T02:21:35.960Z,19.90
2018-06-21T02:22:07.132Z,19.90
2018-06-21T02:22:38.368Z,19.87
2018-06-21T02:23:09.552Z,19.88
2018-06-21T02:23:40.836Z,19.90
2018-06-21T02:24:12.057Z,19.91
2018-06-21T02:24:43.290Z,19.94
2018-06-21T02:25:14.531Z,19.94
2018-06-21T02:25:45.766Z,19.94
2018-06-21T02:26:16.953Z,19.95
2018-06-21T02:26:48.133Z,19.94
2018-06-21T02:27:19.304Z,19.93
2018-06-21T02:27:50.589Z,19.92
2018-06-21T02:28:21.777Z,19.94
2018-06-21T02:28:52.952Z,19.96
2018-06-21T02:29:24.135Z,20.01
2018-06-21T02:29:55.313Z,20.04
2018-06-21T02:30:26.507Z,20.06
2018-06-21T02:30:57.759Z,20.05
2018-06-21T02:31:29.041Z,20.01
2018-06-21T02:32:00.230Z,19.98
2018-06-21T02:32:31.455Z,19.94
2018-06-21T02:33:02.696Z,19.90
2018-06-21T02:33:33.885Z,19.88
2018-06-21T02:34:05.076Z,19.85
2018-06-21T02:34:36.269Z,19.85
2018-06-21T02:35:07.449Z,19.83
2018-06-21T02:35:38.678Z,19.84
2018-06-21T02:36:09.918Z,19.83
2018-06-21T02:36:41.101Z,19.84
2018-06-21T02:37:12.372Z,19.84
2018-06-21T02:37:43.560Z,19.84
2018-06-21T02:38:14.738Z,19.84
2018-06-21T02:38:45.914Z,19.84
2018-06-21T02:39:17.108Z,19.84
2018-06-21T02:39:48.329Z,19.84
2018-06-21T02:40:19.510Z,19.86
2018-06-21T02:40:50.746Z,19.88
2018-06-21T02:41:21.977Z,19.88
2018-06-21T02:41:53.161Z,19.88
2018-06-21T02:42:24.336Z,19.89
2018-06-21T02:42:55.554Z,19.90
2018-06-21T02:43:26.744Z,19.92
2018-06-21T02:43:57.968Z,19.93
2018-06-21T02:44:29.199Z,19.93
2018-06-21T02:45:00.397Z,19.95
2018-06-21T02:45:31.625Z,19.96
2018-06-21T02:46:02.800Z,19.98
2018-06-21T02:46:33.986Z,19.99
2018-06-21T02:47:05.157Z,19.99
2018-06-21T02:47:36.345Z,20.01
2018-06-21T02:48:07.584Z,20.01
2018-06-21T02:48:38.778Z,20.03
2018-06-21T02:49:09.956Z,20.04
2018-06-21T02:49:41.135Z,20.05
2018-06-21T02:50:12.362Z,20.07
2018-06-21T02:50:43.585Z,20.09
2018-06-21T02:51:14.810Z,20.11
2018-06-21T02:51:46.045Z,20.15
2018-06-21T02:52:17.241Z,20.15
2018-06-21T02:52:48.473Z,20.17
2018-06-21T02:53:19.656Z,20.17
2018-06-21T02:53:50.936Z,20.16
2018-06-21T02:54:22.117Z,20.18
2018-06-21T02:54:53.348Z,20.16
2018-06-21T02:55:24.525Z,20.16
2018-06-21T02:55:55.736Z,20.15
2018-06-21T02:56:26.965Z,20.15
2018-06-21T02:56:58.164Z,20.17
2018-06-21T02:57:29.388Z,20.18
2018-06-21T02:58:00.572Z,20.19
2018-06-21T02:58:31.758Z,20.20
2018-06-21T02:59:02.988Z,20.21
2018-06-21T02:59:34.173Z,20.20
2018-06-21T03:00:05.421Z,20.23
2018-06-21T03:00:36.658Z,20.24
2018-06-21T03:01:07.849Z,20.25
2018-06-21T03:01:39.015Z,20.26
2018-06-21T03:02:10.209Z,20.26
2018-06-21T03:02:41.392Z,20.31
2018-06-21T03:03:12.565Z,20.36
2018-06-21T03:03:43.798Z,20.41
2018-06-21T03:04:15.079Z,20.45
2018-06-21T03:04:46.266Z,20.48
2018-06-21T03:05:17.500Z,20.50
2018-06-21T03:05:48.743Z,20.50
2018-06-21T03:06:19.939Z,20.49
2018-06-21T03:06:51.118Z,20.49
2018-06-21T03:07:22.356Z,20.49
2018-06-21T03:07:53.590Z,20.51
2018-06-21T03:08:24.870Z,20.53
2018-06-21T03:08:56.058Z,20.55
2018-06-21T03:09:27.276Z,20.59
2018-06-21T03:09:58.488Z,20.63
2018-06-21T03:10:29.670Z,20.68
2018-06-21T03:11:00.853Z,20.72
2018-06-21T03:11:32.041Z,20.79
2018-06-21T03:12:03.213Z,20.84
2018-06-21T03:12:34.445Z,20.88
2018-06-21T03:13:05.637Z,20.95
2018-06-21T03:13:36.814Z,21.01
2018-06-21T03:14:08.050Z,21.07
2018-06-21T03:14:39.301Z,21.12
2018-06-21T03:15:10.542Z,21.11
2018-06-21T03:15:41.785Z,21.14
2018-06-21T03:16:13.025Z,21.17
2018-06-21T03:16:44.212Z,21.20
2018-06-21T03:17:15.395Z,21.23
2018-06-21T03:17:46.576Z,21.29
2018-06-21T03:18:17.759Z,21.35
2018-06-21T03:18:48.936Z,21.42
2018-06-21T03:19:20.321Z,21.48
2018-06-21T03:19:51.607Z,21.55
2018-06-21T03:20:22.842Z,21.59
2018-06-21T03:20:54.074Z,21.65
2018-06-21T03:21:25.295Z,21.70
2018-06-21T03:21:56.558Z,21.37
2018-06-21T03:22:27.740Z,21.79
2018-06-21T03:22:58.971Z,21.84
2018-06-21T03:23:30.156Z,21.89
2018-06-21T03:24:01.341Z,21.91
2018-06-21T03:24:32.514Z,21.92
2018-06-21T03:25:03.725Z,21.92
2018-06-21T03:25:34.906Z,21.90
2018-06-21T03:26:06.120Z,21.88
2018-06-21T03:26:37.341Z,21.86
2018-06-21T03:27:08.520Z,21.83
2018-06-21T03:27:39.748Z,21.82
2018-06-21T03:28:10.936Z,21.81
2018-06-21T03:28:42.442Z,21.78
2018-06-21T03:29:13.784Z,21.73
2018-06-21T03:29:45.009Z,21.72
2018-06-21T03:30:16.233Z,21.70
2018-06-21T03:30:47.436Z,21.67
2018-06-21T03:31:18.608Z,21.63
2018-06-21T03:31:49.782Z,21.64
2018-06-21T03:32:20.952Z,21.63
2018-06-21T03:32:52.125Z,21.62
2018-06-21T03:33:23.299Z,21.62
2018-06-21T03:33:54.484Z,21.62
2018-06-21T03:34:25.704Z,21.62
2018-06-21T03:34:56.881Z,21.66
2018-06-21T03:35:28.113Z,21.69
2018-06-21T03:35:59.280Z,21.71
2018-06-21T03:36:30.461Z,21.71
2018-06-21T03:37:01.690Z,21.73
2018-06-21T03:37:32.913Z,21.79
2018-06-21T03:38:04.093Z,21.84
2018-06-21T03:38:35.260Z,21.91
2018-06-21T03:39:06.485Z,22.07
2018-06-21T03:39:37.669Z,22.27
2018-06-21T03:40:08.893Z,22.49
2018-06-21T03:40:40.122Z,22.75
2018-06-21T03:41:11.300Z,23.00
2018-06-21T03:41:42.521Z,23.22
2018-06-21T03:42:13.755Z,23.46
2018-06-21T03:42:44.996Z,23.65
2018-06-21T03:43:16.241Z,23.84
2018-06-21T03:43:47.422Z,23.99
2018-06-21T03:44:18.598Z,24.16
2018-06-21T03:44:49.777Z,24.31
2018-06-21T03:45:21.031Z,24.46
2018-06-21T03:45:52.252Z,24.59
2018-06-21T03:46:23.426Z,24.68
2018-06-21T03:46:54.600Z,24.81
2018-06-21T03:47:25.770Z,24.93
2018-06-21T03:47:56.941Z,25.05
2018-06-21T03:48:28.161Z,25.21
2018-06-21T03:48:59.393Z,25.36
2018-06-21T03:49:30.618Z,25.50
2018-06-21T03:50:01.804Z,25.65
2018-06-21T03:50:32.975Z,25.75
2018-06-21T03:51:04.242Z,25.81
2018-06-21T03:51:35.428Z,25.77
2018-06-21T03:52:06.611Z,25.81
2018-06-21T03:52:37.784Z,25.79
2018-06-21T03:53:08.988Z,25.74
2018-06-21T03:53:40.156Z,25.70
2018-06-21T03:54:11.328Z,25.38
2018-06-21T03:54:42.597Z,25.16
2018-06-21T03:55:13.773Z,24.97
2018-06-21T03:55:45.001Z,24.76
2018-06-21T03:56:16.237Z,24.61
2018-06-21T03:56:47.404Z,24.50
2018-06-21T03:57:18.580Z,24.45
2018-06-21T03:57:49.761Z,24.55
2018-06-21T03:58:20.989Z,24.62
2018-06-21T03:58:52.168Z,24.74
2018-06-21T03:59:23.344Z,24.92
2018-06-21T03:59:54.519Z,24.99
2018-06-21T04:00:25.708Z,25.06
2018-06-21T04:00:56.886Z,25.18
2018-06-21T04:01:28.100Z,25.37
2018-06-21T04:01:59.284Z,25.57
2018-06-21T04:02:30.509Z,25.72
2018-06-21T04:03:01.698Z,25.65
2018-06-21T04:03:32.876Z,25.34
2018-06-21T04:04:04.089Z,25.05
2018-06-21T04:04:35.268Z,25.06
2018-06-21T04:05:06.446Z,24.99
2018-06-21T04:05:37.672Z,24.93
2018-06-21T04:06:08.891Z,24.92
2018-06-21T04:06:40.068Z,24.86
2018-06-21T04:07:11.275Z,24.83
2018-06-21T04:07:42.445Z,24.83
2018-06-21T04:08:13.616Z,24.87
2018-06-21T04:08:44.849Z,24.93
2018-06-21T04:09:16.027Z,25.05
2018-06-21T04:09:47.208Z,25.21
2018-06-21T04:10:18.384Z,25.39
2018-06-21T04:10:49.556Z,25.62
2018-06-21T04:11:20.776Z,25.83
2018-06-21T04:11:51.950Z,25.93
2018-06-21T04:12:23.185Z,25.79
2018-06-21T04:12:54.365Z,25.61
2018-06-21T04:13:25.605Z,25.47
2018-06-21T04:13:56.805Z,25.37
2018-06-21T04:14:27.991Z,25.26
2018-06-21T04:14:59.168Z,25.14
2018-06-21T04:15:30.337Z,24.97
2018-06-21T04:16:01.549Z,24.76
2018-06-21T04:16:32.720Z,24.67
2018-06-21T04:17:03.892Z,24.57
2018-06-21T04:17:35.089Z,24.53
2018-06-21T04:18:06.337Z,24.55
2018-06-21T04:18:37.569Z,24.61
2018-06-21T04:19:08.744Z,24.62
2018-06-21T04:19:40.028Z,24.78
2018-06-21T04:20:11.274Z,24.94
2018-06-21T04:20:42.526Z,25.06
2018-06-21T04:21:13.710Z,25.11
2018-06-21T04:21:44.880Z,25.10
2018-06-21T04:22:16.101Z,25.05
2018-06-21T04:22:47.994Z,24.94
2018-06-21T04:23:19.265Z,24.86
2018-06-21T04:23:50.484Z,24.93
2018-06-21T04:24:21.762Z,25.04
2018-06-21T04:24:53.001Z,25.24
2018-06-21T04:25:24.181Z,25.44
2018-06-21T04:25:55.357Z,25.65
2018-06-21T04:26:26.589Z,25.88
2018-06-21T04:26:57.777Z,26.14
2018-06-21T04:27:29.001Z,26.41
2018-06-21T04:28:00.182Z,26.60
2018-06-21T04:28:31.372Z,26.64
2018-06-21T04:29:02.601Z,26.65
2018-06-21T04:29:33.824Z,26.66
2018-06-21T04:30:05.049Z,26.66
2018-06-21T04:30:36.284Z,26.64
2018-06-21T04:31:07.470Z,26.58
2018-06-21T04:31:38.713Z,26.49
2018-06-21T04:32:09.960Z,26.38
2018-06-21T04:32:42.159Z,26.31
2018-06-21T04:33:13.344Z,26.27
2018-06-21T04:33:44.533Z,26.38
2018-06-21T04:34:15.748Z,26.50
2018-06-21T04:34:46.975Z,26.67
2018-06-21T04:35:18.165Z,26.88
2018-06-21T04:35:49.341Z,27.18
2018-06-21T04:36:20.576Z,27.48
2018-06-21T04:36:51.812Z,27.70
2018-06-21T04:37:23.045Z,27.98
2018-06-21T04:37:54.257Z,28.25
2018-06-21T04:38:25.505Z,28.41
2018-06-21T04:38:56.757Z,28.45
2018-06-21T04:39:27.948Z,28.10
2018-06-21T04:39:59.172Z,27.96
2018-06-21T04:40:30.346Z,27.75
2018-06-21T04:41:01.529Z,27.64
2018-06-21T04:41:32.705Z,27.48
2018-06-21T04:42:03.884Z,27.27
2018-06-21T04:42:35.064Z,27.28
2018-06-21T04:43:06.235Z,27.25
2018-06-21T04:43:37.404Z,27.42
2018-06-21T04:44:08.590Z,27.63
2018-06-21T04:44:39.776Z,27.92
2018-06-21T04:45:11.056Z,28.14
2018-06-21T04:45:42.244Z,28.44
2018-06-21T04:46:13.520Z,28.71
2018-06-21T04:46:44.757Z,28.85
2018-06-21T04:47:15.948Z,29.11
2018-06-21T04:47:47.174Z,29.25
2018-06-21T04:48:18.413Z,29.41
2018-06-21T04:48:49.649Z,29.54
2018-06-21T04:49:20.909Z,29.47
2018-06-21T04:49:52.102Z,29.50
2018-06-21T04:50:23.282Z,29.45
2018-06-21T04:50:54.468Z,29.25
2018-06-21T04:51:25.692Z,29.10
2018-06-21T04:51:56.856Z,28.91
2018-06-21T04:52:28.031Z,28.60
2018-06-21T04:52:59.205Z,28.31
2018-06-21T04:53:30.376Z,28.11
2018-06-21T04:54:01.558Z,27.93
2018-06-21T04:54:32.741Z,27.69
2018-06-21T04:55:03.969Z,27.62
2018-06-21T04:55:35.205Z,27.59
2018-06-21T04:56:07.677Z,27.54
2018-06-21T04:56:38.976Z,27.53
2018-06-21T04:57:10.229Z,27.63
2018-06-21T04:57:41.469Z,27.85
2018-06-21T04:58:12.706Z,28.06
2018-06-21T04:58:43.942Z,28.29
2018-06-21T04:59:15.183Z,28.61
2018-06-21T04:59:46.376Z,28.91
2018-06-21T05:00:17.554Z,29.13
2018-06-21T05:00:48.780Z,29.23
2018-06-21T05:01:19.960Z,29.00
2018-06-21T05:01:51.182Z,28.69
2018-06-21T05:02:22.369Z,28.49
2018-06-21T05:02:53.492Z,28.17
2018-06-21T05:03:24.672Z,27.98
2018-06-21T05:03:55.853Z,27.84
2018-06-21T05:04:27.090Z,27.80
2018-06-21T05:04:58.258Z,27.81
2018-06-21T05:05:29.488Z,27.93
2018-06-21T05:06:00.671Z,28.17
2018-06-21T05:06:31.871Z,28.47
2018-06-21T05:07:03.094Z,28.80
2018-06-21T05:07:34.284Z,29.19
2018-06-21T05:08:05.506Z,29.56
2018-06-21T05:08:36.690Z,29.95
2018-06-21T05:09:07.874Z,30.18
2018-06-21T05:09:39.041Z,30.37
2018-06-21T05:10:10.204Z,30.60
2018-06-21T05:10:41.370Z,30.78
2018-06-21T05:11:13.463Z,30.92
2018-06-21T05:11:44.633Z,31.12
2018-06-21T05:12:15.842Z,31.30
2018-06-21T05:12:47.015Z,31.49
2018-06-21T05:13:18.236Z,31.68
2018-06-21T05:13:49.496Z,31.66
2018-06-21T05:14:20.667Z,31.66
2018-06-21T05:14:51.839Z,32.00
2018-06-21T05:15:23.020Z,32.21
2018-06-21T05:15:54.192Z,32.16
2018-06-21T05:16:25.377Z,32.24
2018-06-21T05:16:56.604Z,32.32
2018-06-21T05:17:27.793Z,32.50
2018-06-21T05:17:58.976Z,32.61
2018-06-21T05:18:30.197Z,32.78
2018-06-21T05:19:01.378Z,32.85
2018-06-21T05:19:32.549Z,32.93
2018-06-21T05:20:03.785Z,32.96
2018-06-21T05:20:34.973Z,32.97
2018-06-21T05:21:06.209Z,33.14
2018-06-21T05:21:37.435Z,33.29
2018-06-21T05:22:08.620Z,33.50
2018-06-21T05:22:39.801Z,33.42
2018-06-21T05:23:11.065Z,33.43
2018-06-21T05:23:42.248Z,33.31
2018-06-21T05:24:13.428Z,33.36
2018-06-21T05:24:44.606Z,33.13
2018-06-21T05:25:15.796Z,33.20
2018-06-21T05:25:46.973Z,33.00
2018-06-21T05:26:18.160Z,32.69
2018-06-21T05:26:49.388Z,32.35
2018-06-21T05:27:20.606Z,32.54
2018-06-21T05:27:51.837Z,32.60
2018-06-21T05:28:23.073Z,32.74
2018-06-21T05:28:54.256Z,32.87
2018-06-21T05:29:25.435Z,33.03
2018-06-21T05:29:56.673Z,33.25
2018-06-21T05:30:27.854Z,33.43
2018-06-21T05:30:59.034Z,33.43
2018-06-21T05:31:30.209Z,33.71
2018-06-21T05:32:01.535Z,33.88
2018-06-21T05:32:32.708Z,34.00
2018-06-21T05:33:03.880Z,34.00
2018-06-21T05:33:35.057Z,34.16
2018-06-21T05:34:06.233Z,34.38
2018-06-21T05:34:37.416Z,34.49
2018-06-21T05:35:08.624Z,34.47
2018-06-21T05:35:39.833Z,34.46
2018-06-21T05:36:11.101Z,34.47
2018-06-21T05:36:42.274Z,34.52
2018-06-21T05:37:13.445Z,34.61
2018-06-21T05:37:44.612Z,34.50
2018-06-21T05:38:15.781Z,34.51
2018-06-21T05:38:46.956Z,34.51
2018-06-21T05:39:18.153Z,34.51
2018-06-21T05:39:49.427Z,34.53
2018-06-21T05:40:20.653Z,34.42
2018-06-21T05:40:51.886Z,34.20
2018-06-21T05:41:23.072Z,34.23
2018-06-21T05:41:54.249Z,33.97
2018-06-21T05:42:25.482Z,33.96
2018-06-21T05:42:56.770Z,33.95
2018-06-21T05:43:27.958Z,33.98
2018-06-21T05:43:59.165Z,34.03
2018-06-21T05:44:30.441Z,34.08
2018-06-21T05:45:01.697Z,34.14
2018-06-21T05:45:32.878Z,34.23
2018-06-21T05:46:04.046Z,34.31
2018-06-21T05:46:35.213Z,34.41
2018-06-21T05:47:06.417Z,34.47
2018-06-21T05:47:37.597Z,34.43
2018-06-21T05:48:08.853Z,34.46
2018-06-21T05:48:40.031Z,34.37
2018-06-21T05:49:11.208Z,34.30
2018-06-21T05:49:42.398Z,34.25
2018-06-21T05:50:13.646Z,34.22
2018-06-21T05:50:44.845Z,34.17
2018-06-21T05:51:16.017Z,34.05
2018-06-21T05:51:47.222Z,33.96
2018-06-21T05:52:18.392Z,33.86
2018-06-21T05:52:49.614Z,33.76
2018-06-21T05:53:20.797Z,33.61
2018-06-21T05:53:52.026Z,33.55
2018-06-21T05:54:23.197Z,33.47
2018-06-21T05:54:54.371Z,33.30
2018-06-21T05:55:25.571Z,33.17
2018-06-21T05:55:56.737Z,33.10
2018-06-21T05:56:27.956Z,32.93
2018-06-21T05:56:59.142Z,32.81
2018-06-21T05:57:30.394Z,32.79
2018-06-21T05:58:01.581Z,32.56
2018-06-21T05:58:32.766Z,32.34
2018-06-21T05:59:03.976Z,32.25
2018-06-21T05:59:35.197Z,32.19
2018-06-21T06:00:06.395Z,32.11
2018-06-21T06:00:37.570Z,32.04
2018-06-21T06:01:08.739Z,31.95
2018-06-21T06:01:39.915Z,31.91
2018-06-21T06:02:11.085Z,31.89
2018-06-21T06:02:42.381Z,31.85
2018-06-21T06:03:13.568Z,31.76
2018-06-21T06:03:44.748Z,31.62
2018-06-21T06:04:15.916Z,31.52
2018-06-21T06:04:47.179Z,31.38
2018-06-21T06:05:18.360Z,31.28
2018-06-21T06:05:49.578Z,31.16
2018-06-21T06:06:20.763Z,31.15
2018-06-21T06:06:51.936Z,31.14
2018-06-21T06:07:23.116Z,31.11
2018-06-21T06:07:54.288Z,30.99
2018-06-21T06:08:25.528Z,30.74
2018-06-21T06:08:56.749Z,30.69
2018-06-21T06:09:27.990Z,30.50
2018-06-21T06:09:59.279Z,30.37
2018-06-21T06:10:30.457Z,30.14
2018-06-21T06:11:01.646Z,30.01
2018-06-21T06:11:32.913Z,29.98
2018-06-21T06:12:06.298Z,29.94
2018-06-21T06:12:37.496Z,29.98
2018-06-21T06:13:08.725Z,29.99
2018-06-21T06:13:39.952Z,30.00
2018-06-21T06:14:11.195Z,30.03
2018-06-21T06:14:42.406Z,29.95
2018-06-21T06:15:13.632Z,29.96
2018-06-21T06:15:44.815Z,29.94
2018-06-21T06:16:16.038Z,29.95
2018-06-21T06:16:47.253Z,29.99
2018-06-21T06:17:18.485Z,30.07
2018-06-21T06:17:49.742Z,30.04
2018-06-21T06:18:20.930Z,30.10
2018-06-21T06:18:52.125Z,30.05
2018-06-21T06:19:23.358Z,30.00
2018-06-21T06:19:54.655Z,30.00
2018-06-21T06:20:25.900Z,30.04
2018-06-21T06:20:57.137Z,30.06
2018-06-21T06:21:28.334Z,30.13
2018-06-21T06:21:59.580Z,30.12
2018-06-21T06:22:30.774Z,30.11
2018-06-21T06:23:02.025Z,30.24
2018-06-21T06:23:33.212Z,30.31
2018-06-21T06:24:04.405Z,30.40
2018-06-21T06:24:35.578Z,30.47
2018-06-21T06:25:06.848Z,30.49
2018-06-21T06:25:38.122Z,30.48
2018-06-21T06:26:09.365Z,30.47
2018-06-21T06:26:40.620Z,30.52
2018-06-21T06:27:11.840Z,30.59
2018-06-21T06:27:43.103Z,30.68
2018-06-21T06:28:14.341Z,30.73
2018-06-21T06:28:45.619Z,30.78
2018-06-21T06:29:16.832Z,30.84
2018-06-21T06:29:48.018Z,30.90
2018-06-21T06:30:19.203Z,30.92
2018-06-21T06:30:50.403Z,30.90
2018-06-21T06:31:21.592Z,30.85
2018-06-21T06:31:52.828Z,30.76
2018-06-21T06:32:24.121Z,30.80
2018-06-21T06:32:55.389Z,30.72
2018-06-21T06:33:26.566Z,30.71
2018-06-21T06:33:57.809Z,30.69
2018-06-21T06:34:29.034Z,30.68
2018-06-21T06:35:00.254Z,30.77
2018-06-21T06:35:31.498Z,30.90
2018-06-21T06:36:02.671Z,30.95
2018-06-21T06:36:33.850Z,30.96
2018-06-21T06:37:05.026Z,30.95
2018-06-21T06:37:36.197Z,30.96
2018-06-21T06:38:07.416Z,30.82
2018-06-21T06:38:38.597Z,30.75
2018-06-21T06:39:09.834Z,30.72
2018-06-21T06:39:41.093Z,30.53
2018-06-21T06:40:12.338Z,30.44
2018-06-21T06:40:43.577Z,30.32
2018-06-21T06:41:14.777Z,30.12
2018-06-21T06:41:45.955Z,30.08